Time;durP1;ratioP1;P1;durP2;ratioP2;P2;SDS_P1;SDS_P2;PMS_P1;PMS_P2;Temp;Humidity;BMP_temperature;BMP_pressure;BME280_temperature;BME280_humidity;BME280_pressure;Samples;Min_cycle;Max_cycle;Signal;HPM_P1;HPM_P2
2022/04/19 00:00:41;;;;;;;4.37;3.23;;;;;;;;;;5032167;28;20249;-78
2022/04/19 00:03:09;;;;;;;3.47;3.17;;;;;;;;;;5033891;28;20202;-78
2022/04/19 00:05:36;;;;;;;4.37;3.40;;;;;;;;;;5039586;28;20280;-80
2022/04/19 00:08:04;;;;;;;5.00;3.20;;;;;;;;;;5032512;28;20268;-81
2022/04/19 00:10:32;;;;;;;5.03;3.60;;;;;;;;;;5031765;28;20242;-79
2022/04/19 00:13:00;;;;;;;5.70;3.50;;;;;;;;;;5032568;28;20235;-78
2022/04/19 00:15:28;;;;;;;4.40;3.47;;;;;;;;;;5032233;28;20725;-78
2022/04/19 00:17:56;;;;;;;3.93;3.43;;;;;;;;;;5032981;28;20210;-78
2022/04/19 00:20:23;;;;;;;3.73;3.43;;;;;;;;;;5031794;28;20242;-79
2022/04/19 00:22:50;;;;;;;3.27;2.97;;;;;;;;;;5032181;28;20736;-78
2022/04/19 00:25:17;;;;;;;6.70;3.17;;;;;;;;;;5031975;28;20268;-79
2022/04/19 00:27:46;;;;;;;3.33;3.03;;;;;;;;;;5033425;28;20211;-82
2022/04/19 00:30:13;;;;;;;6.63;3.63;;;;;;;;;;5031720;28;20242;-79
2022/04/19 00:32:40;;;;;;;3.57;3.07;;;;;;;;;;5032690;28;20234;-78
2022/04/19 00:35:09;;;;;;;4.00;3.70;;;;;;;;;;5032808;28;20238;-79
2022/04/19 00:37:36;;;;;;;3.10;2.90;;;;;;;;;;5032694;28;20206;-79
2022/04/19 00:40:03;;;;;;;3.57;3.27;;;;;;;;;;5032941;28;20238;-79
2022/04/19 00:42:31;;;;;;;4.73;3.03;;;;;;;;;;5033666;28;20599;-78
2022/04/19 00:45:00;;;;;;;3.40;3.10;;;;;;;;;;5031839;28;20710;-78
2022/04/19 00:47:27;;;;;;;4.40;3.20;;;;;;;;;;5033566;28;20214;-80
2022/04/19 00:49:54;;;;;;;3.70;3.40;;;;;;;;;;5031279;28;20703;-78
2022/04/19 00:52:21;;;;;;;4.80;3.40;;;;;;;;;;5032607;28;20230;-79
2022/04/19 00:54:48;;;;;;;3.43;3.13;;;;;;;;;;5032013;28;20238;-78
2022/04/19 00:57:16;;;;;;;4.00;3.70;;;;;;;;;;5032277;28;20210;-79
2022/04/19 00:59:43;;;;;;;3.57;3.13;;;;;;;;;;5034638;28;20249;-79
2022/04/19 01:02:12;;;;;;;4.37;3.50;;;;;;;;;;5045989;28;20206;-78
2022/04/19 01:04:39;;;;;;;4.03;3.63;;;;;;;;;;5055423;28;20241;-80
2022/04/19 01:07:06;;;;;;;3.20;3.00;;;;;;;;;;5047766;28;20214;-78
2022/04/19 01:09:33;;;;;;;4.00;3.60;;;;;;;;;;5067730;28;20226;-79
2022/04/19 01:14:48;;;;;;;5.67;3.87;;;;;;;;;;5075294;28;20244;-78
2022/04/19 01:17:16;;;;;;;4.03;3.70;;;;;;;;;;5075424;28;20675;-79
2022/04/19 01:19:43;;;;;;;3.50;3.20;;;;;;;;;;5074685;28;20307;-79
2022/04/19 01:22:13;;;;;;;3.70;3.40;;;;;;;;;;5075883;28;20225;-78
2022/04/19 01:24:40;;;;;;;4.00;3.60;;;;;;;;;;5075021;28;20237;-80
2022/04/19 01:27:09;;;;;;;4.63;3.40;;;;;;;;;;5075257;28;20239;-79
2022/04/19 01:29:37;;;;;;;4.00;3.70;;;;;;;;;;5074499;28;20233;-79
2022/04/19 01:32:04;;;;;;;4.30;3.67;;;;;;;;;;5075270;28;20213;-79
2022/04/19 01:34:32;;;;;;;5.27;3.77;;;;;;;;;;5074879;28;20240;-78
2022/04/19 01:36:59;;;;;;;5.80;3.90;;;;;;;;;;5075903;28;20410;-79
2022/04/19 01:42:13;;;;;;;4.17;3.30;;;;;;;;;;5074909;28;20247;-80
2022/04/19 01:44:41;;;;;;;4.17;3.77;;;;;;;;;;5074742;28;20239;-78
2022/04/19 01:47:08;;;;;;;4.20;3.80;;;;;;;;;;5074923;28;20611;-78
2022/04/19 01:49:35;;;;;;;4.13;3.73;;;;;;;;;;5073983;28;20663;-80
2022/04/19 01:52:02;;;;;;;5.03;3.93;;;;;;;;;;5075023;28;20201;-78
2022/04/19 01:54:31;;;;;;;3.80;3.40;;;;;;;;;;5074542;28;20684;-79
2022/04/19 01:56:59;;;;;;;5.77;3.50;;;;;;;;;;5074857;28;20226;-78
2022/04/19 01:59:26;;;;;;;3.90;3.57;;;;;;;;;;5074148;28;20233;-79
2022/04/19 02:01:53;;;;;;;5.60;3.50;;;;;;;;;;5074935;28;20216;-80
2022/04/19 02:04:20;;;;;;;4.03;3.47;;;;;;;;;;5074284;28;20212;-78
2022/04/19 02:06:47;;;;;;;3.83;3.43;;;;;;;;;;5074457;28;20208;-78
2022/04/19 02:09:14;;;;;;;3.53;3.17;;;;;;;;;;5074580;28;20266;-78
2022/04/19 02:11:43;;;;;;;3.47;2.97;;;;;;;;;;5074254;28;20229;-79
2022/04/19 02:14:10;;;;;;;6.00;4.40;;;;;;;;;;5074465;28;20240;-79
2022/04/19 02:16:38;;;;;;;4.77;3.30;;;;;;;;;;5073777;28;20728;-79
2022/04/19 02:19:05;;;;;;;4.60;3.53;;;;;;;;;;5074147;28;20255;-79
2022/04/19 02:21:32;;;;;;;6.43;3.73;;;;;;;;;;5073581;28;20322;-79
2022/04/19 02:23:59;;;;;;;3.23;3.03;;;;;;;;;;5074534;28;20232;-78
2022/04/19 02:26:26;;;;;;;4.00;3.57;;;;;;;;;;5074180;28;20259;-79
2022/04/19 02:28:55;;;;;;;3.80;3.40;;;;;;;;;;5074419;28;20234;-78
2022/04/19 02:31:22;;;;;;;7.00;3.27;;;;;;;;;;5075079;28;20231;-79
2022/04/19 02:33:49;;;;;;;3.40;3.10;;;;;;;;;;5074743;28;20222;-78
2022/04/19 02:36:17;;;;;;;5.50;3.50;;;;;;;;;;5073706;28;20236;-79
2022/04/19 02:38:45;;;;;;;3.47;3.10;;;;;;;;;;5074018;28;20213;-79
2022/04/19 02:41:12;;;;;;;3.60;3.30;;;;;;;;;;5073734;28;20238;-78
2022/04/19 02:43:39;;;;;;;4.43;3.33;;;;;;;;;;5075180;28;20199;-78
2022/04/19 02:46:07;;;;;;;3.53;3.23;;;;;;;;;;5074119;28;20283;-78
2022/04/19 02:48:35;;;;;;;4.43;3.60;;;;;;;;;;5074743;28;20673;-82
2022/04/19 02:51:02;;;;;;;3.77;3.23;;;;;;;;;;5075152;28;20236;-79
2022/04/19 02:53:29;;;;;;;3.70;3.40;;;;;;;;;;5076350;28;20222;-80
2022/04/19 02:55:56;;;;;;;3.87;3.43;;;;;;;;;;5074842;28;20238;-78
2022/04/19 02:58:25;;;;;;;3.50;3.27;;;;;;;;;;5075508;28;20208;-79
2022/04/19 03:00:52;;;;;;;5.17;3.63;;;;;;;;;;5073397;28;20268;-78
2022/04/19 03:03:20;;;;;;;3.77;3.47;;;;;;;;;;5073641;28;20194;-80
2022/04/19 03:05:48;;;;;;;6.80;3.50;;;;;;;;;;5072864;28;20237;-79
2022/04/19 03:08:15;;;;;;;3.77;3.47;;;;;;;;;;5073071;28;20207;-78
2022/04/19 03:10:42;;;;;;;3.87;3.47;;;;;;;;;;5072966;28;20265;-78
2022/04/19 03:13:10;;;;;;;3.60;3.30;;;;;;;;;;5073545;28;20230;-79
2022/04/19 03:15:37;;;;;;;5.83;3.50;;;;;;;;;;5073417;28;20237;-78
2022/04/19 03:18:05;;;;;;;4.17;3.60;;;;;;;;;;5073522;28;20255;-78
2022/04/19 03:20:33;;;;;;;6.20;3.73;;;;;;;;;;5073797;28;20237;-79
2022/04/19 03:28:35;;;;;;;3.80;3.50;;;;;;;;;;5000446;28;20818;-80
2022/04/19 03:31:02;;;;;;;5.47;3.83;;;;;;;;;;5088751;28;20239;-79
2022/04/19 03:33:29;;;;;;;6.07;3.47;;;;;;;;;;5080896;28;20233;-80
2022/04/19 03:35:58;;;;;;;3.93;3.63;;;;;;;;;;5075032;28;20670;-79
2022/04/19 03:38:25;;;;;;;3.70;3.40;;;;;;;;;;5073707;28;20213;-79
2022/04/19 03:40:52;;;;;;;4.03;3.60;;;;;;;;;;5072786;28;20242;-80
2022/04/19 03:43:19;;;;;;;4.07;3.67;;;;;;;;;;5073289;28;20231;-78
2022/04/19 03:45:46;;;;;;;5.97;3.57;;;;;;;;;;5073062;28;20258;-78
2022/04/19 03:48:13;;;;;;;3.73;3.43;;;;;;;;;;5073204;28;20549;-79
2022/04/19 03:50:41;;;;;;;4.10;3.67;;;;;;;;;;5078199;28;20273;-79
2022/04/19 03:53:09;;;;;;;3.63;3.30;;;;;;;;;;5077686;28;20593;-79
2022/04/19 03:55:36;;;;;;;5.33;4.30;;;;;;;;;;5077690;28;20243;-79
2022/04/19 03:58:04;;;;;;;3.80;3.27;;;;;;;;;;5077698;28;20202;-80
2022/04/19 04:00:31;;;;;;;7.57;4.00;;;;;;;;;;5076968;28;20364;-81
2022/04/19 04:02:58;;;;;;;4.47;3.67;;;;;;;;;;5081294;28;20774;-81
2022/04/19 04:05:25;;;;;;;5.50;3.83;;;;;;;;;;5082331;28;20242;-81
2022/04/19 04:07:52;;;;;;;4.80;3.43;;;;;;;;;;5082140;28;20263;-80
2022/04/19 04:10:20;;;;;;;3.47;3.13;;;;;;;;;;5081183;28;20241;-80
2022/04/19 04:12:47;;;;;;;5.73;3.33;;;;;;;;;;5081497;28;20205;-79
2022/04/19 04:15:14;;;;;;;19.30;3.73;;;;;;;;;;5081468;28;20263;-79
2022/04/19 04:17:41;;;;;;;4.50;3.57;;;;;;;;;;5080031;28;20209;-80
2022/04/19 04:20:09;;;;;;;4.23;3.87;;;;;;;;;;5077096;28;20725;-79
2022/04/19 04:22:36;;;;;;;4.27;3.50;;;;;;;;;;5075858;28;20212;-79
2022/04/19 04:25:03;;;;;;;7.27;3.83;;;;;;;;;;5072465;28;20291;-80
2022/04/19 04:27:31;;;;;;;4.03;3.63;;;;;;;;;;5073553;28;20676;-79
2022/04/19 04:29:59;;;;;;;8.47;3.70;;;;;;;;;;5052329;28;20242;-79
2022/04/19 04:32:26;;;;;;;6.07;4.40;;;;;;;;;;5055780;28;20197;-80
2022/04/19 04:34:53;;;;;;;10.37;3.90;;;;;;;;;;5051966;28;20607;-78
2022/04/19 04:37:20;;;;;;;8.77;4.43;;;;;;;;;;5055870;28;20206;-80
2022/04/19 04:39:47;;;;;;;3.77;3.47;;;;;;;;;;5065838;28;20245;-81
2022/04/19 04:42:15;;;;;;;10.23;3.53;;;;;;;;;;5069552;28;20203;-80
2022/04/19 04:44:43;;;;;;;9.57;3.70;;;;;;;;;;5064102;28;20697;-79
2022/04/19 04:49:59;;;;;;;4.10;3.67;;;;;;;;;;5055238;28;20701;-78
2022/04/19 04:52:26;;;;;;;4.30;3.80;;;;;;;;;;5055363;28;20217;-77
2022/04/19 04:54:53;;;;;;;6.17;3.83;;;;;;;;;;5054585;28;20257;-77
2022/04/19 04:57:20;;;;;;;9.17;3.93;;;;;;;;;;5055258;28;20275;-77
2022/04/19 04:59:49;;;;;;;8.70;4.27;;;;;;;;;;5054971;28;20281;-77
2022/04/19 05:02:16;;;;;;;10.83;4.10;;;;;;;;;;5056027;28;20612;-77
2022/04/19 05:04:43;;;;;;;4.13;3.73;;;;;;;;;;5054960;28;20241;-78
2022/04/19 05:07:15;;;;;;;5.27;3.67;;;;;;;;;;5057514;28;20212;-77
2022/04/19 05:09:42;;;;;;;4.33;3.93;;;;;;;;;;5053848;28;20590;-78
2022/04/19 05:12:09;;;;;;;13.37;4.00;;;;;;;;;;5055172;28;20221;-78
2022/04/19 05:14:36;;;;;;;5.53;3.43;;;;;;;;;;5054646;28;20329;-80
2022/04/19 05:17:05;;;;;;;4.57;3.93;;;;;;;;;;5054960;28;20201;-77
2022/04/19 05:19:32;;;;;;;5.00;4.10;;;;;;;;;;5053862;28;20686;-78
2022/04/19 05:21:59;;;;;;;5.57;3.87;;;;;;;;;;5055062;28;20206;-78
2022/04/19 05:24:28;;;;;;;5.33;3.70;;;;;;;;;;5054799;28;20566;-78
2022/04/19 05:26:55;;;;;;;4.20;3.80;;;;;;;;;;5054281;28;20210;-77
2022/04/19 05:29:23;;;;;;;5.13;4.63;;;;;;;;;;5054350;28;20237;-78
2022/04/19 05:31:50;;;;;;;5.77;4.23;;;;;;;;;;5054473;28;20678;-78
2022/04/19 05:34:19;;;;;;;6.33;3.90;;;;;;;;;;5054200;28;20685;-78
2022/04/19 05:36:46;;;;;;;5.83;4.30;;;;;;;;;;5054706;28;20238;-77
2022/04/19 05:39:13;;;;;;;5.70;4.27;;;;;;;;;;5053859;28;20226;-77
2022/04/19 05:41:41;;;;;;;6.00;4.07;;;;;;;;;;5045877;28;20202;-78
2022/04/19 05:44:09;;;;;;;6.33;4.30;;;;;;;;;;5049748;28;20191;-77
2022/04/19 05:46:37;;;;;;;12.50;4.80;;;;;;;;;;5038955;28;20233;-78
2022/04/19 05:49:05;;;;;;;10.77;5.00;;;;;;;;;;5054340;28;20724;-78
2022/04/19 05:51:33;;;;;;;7.57;5.07;;;;;;;;;;5054262;28;20258;-78
2022/04/19 05:54:01;;;;;;;6.33;4.77;;;;;;;;;;5034830;28;20218;-79
2022/04/19 05:56:30;;;;;;;5.10;4.70;;;;;;;;;;5033774;28;20238;-78
2022/04/19 05:58:57;;;;;;;8.63;4.83;;;;;;;;;;5043733;28;20234;-78
2022/04/19 06:01:24;;;;;;;4.90;4.40;;;;;;;;;;5053732;28;20234;-79
2022/04/19 06:06:39;;;;;;;8.07;5.10;;;;;;;;;;5033668;28;20280;-76
2022/04/19 06:09:06;;;;;;;10.40;5.03;;;;;;;;;;5033732;28;20266;-77
2022/04/19 06:11:33;;;;;;;5.30;4.80;;;;;;;;;;5033255;28;20731;-77
2022/04/19 06:14:01;;;;;;;5.37;4.50;;;;;;;;;;5034607;28;20218;-77
2022/04/19 06:16:28;;;;;;;9.83;5.13;;;;;;;;;;5049490;28;20234;-77
2022/04/19 06:18:55;;;;;;;5.03;4.53;;;;;;;;;;5045215;28;20249;-77
2022/04/19 06:21:22;;;;;;;8.60;5.90;;;;;;;;;;5033750;28;20244;-77
2022/04/19 06:23:51;;;;;;;6.10;4.77;;;;;;;;;;5052848;28;20202;-77
2022/04/19 06:26:18;;;;;;;6.90;4.80;;;;;;;;;;5053389;28;20237;-77
2022/04/19 06:28:45;;;;;;;9.10;5.07;;;;;;;;;;5053372;28;20306;-77
2022/04/19 06:31:12;;;;;;;7.07;4.73;;;;;;;;;;5053881;28;20239;-78
2022/04/19 06:33:39;;;;;;;5.17;4.77;;;;;;;;;;5054181;28;20189;-77
2022/04/19 06:36:07;;;;;;;5.10;4.10;;;;;;;;;;5054316;28;20236;-77
2022/04/19 06:38:34;;;;;;;7.00;4.20;;;;;;;;;;5053764;28;20382;-77
2022/04/19 06:41:03;;;;;;;4.33;3.93;;;;;;;;;;5053294;28;20236;-77
2022/04/19 06:43:31;;;;;;;6.03;4.60;;;;;;;;;;5053450;28;20219;-77
2022/04/19 06:45:59;;;;;;;11.93;4.80;;;;;;;;;;5052890;28;20237;-77
2022/04/19 06:48:26;;;;;;;6.43;4.27;;;;;;;;;;5050048;28;20202;-78
2022/04/19 06:50:53;;;;;;;7.50;4.50;;;;;;;;;;5052516;28;20237;-77
2022/04/19 06:53:20;;;;;;;4.90;4.10;;;;;;;;;;5052804;28;20685;-77
2022/04/19 06:55:47;;;;;;;6.17;4.67;;;;;;;;;;5052386;28;20238;-77
2022/04/19 06:58:16;;;;;;;6.13;4.90;;;;;;;;;;5051573;28;20260;-78
2022/04/19 07:00:43;;;;;;;5.70;4.27;;;;;;;;;;5052155;28;20253;-77
2022/04/19 07:03:10;;;;;;;5.03;4.63;;;;;;;;;;5052535;28;20237;-79
2022/04/19 07:05:37;;;;;;;5.70;4.90;;;;;;;;;;5052098;28;20241;-77
2022/04/19 07:08:06;;;;;;;5.13;4.67;;;;;;;;;;5052492;28;20292;-79
2022/04/19 07:10:34;;;;;;;4.90;4.40;;;;;;;;;;5051875;28;20255;-77
2022/04/19 07:13:01;;;;;;;5.20;4.00;;;;;;;;;;5052945;28;20623;-78
2022/04/19 07:15:29;;;;;;;4.73;4.20;;;;;;;;;;5052429;28;20615;-79
2022/04/19 07:17:56;;;;;;;4.53;4.13;;;;;;;;;;5052491;28;20217;-80
2022/04/19 07:28:37;;;;;;;7.10;4.00;;;;;;;;;;5051496;28;20225;-78
2022/04/19 07:31:06;;;;;;;4.37;3.50;;;;;;;;;;5051683;28;20230;-80
2022/04/19 07:33:37;;;;;;;4.20;3.80;;;;;;;;;;5052142;28;20209;-78
2022/04/19 07:36:04;;;;;;;4.27;3.13;;;;;;;;;;5051730;28;20256;-77
2022/04/19 07:38:31;;;;;;;3.40;3.10;;;;;;;;;;5051794;28;20316;-79
2022/04/19 07:40:58;;;;;;;4.67;3.73;;;;;;;;;;5051898;28;20241;-77
2022/04/19 07:43:26;;;;;;;3.97;3.57;;;;;;;;;;5052183;28;20240;-78
2022/04/19 07:45:53;;;;;;;4.33;3.50;;;;;;;;;;5051494;28;20238;-78
2022/04/19 07:48:21;;;;;;;3.77;3.47;;;;;;;;;;5051875;28;20186;-78
2022/04/19 07:50:48;;;;;;;4.17;3.40;;;;;;;;;;5051269;28;20721;-78
2022/04/19 07:53:15;;;;;;;3.77;3.40;;;;;;;;;;5052016;28;20260;-79
2022/04/19 07:55:42;;;;;;;4.70;3.70;;;;;;;;;;5051815;28;20345;-76
2022/04/19 07:58:09;;;;;;;8.13;3.83;;;;;;;;;;5051751;28;20210;-79
2022/04/19 08:00:36;;;;;;;5.00;3.70;;;;;;;;;;5051147;28;20321;-77
2022/04/19 08:03:03;;;;;;;3.50;3.20;;;;;;;;;;5052013;28;20194;-79
2022/04/19 08:05:32;;;;;;;4.53;3.90;;;;;;;;;;5051397;28;20661;-78
2022/04/19 08:07:59;;;;;;;5.70;3.37;;;;;;;;;;5051591;28;20198;-77
2022/04/19 08:10:26;;;;;;;10.23;4.20;;;;;;;;;;5050660;28;20241;-79
2022/04/19 08:12:53;;;;;;;4.77;3.60;;;;;;;;;;5051916;28;20222;-79
2022/04/19 08:15:20;;;;;;;4.50;3.60;;;;;;;;;;5051027;28;20234;-79
2022/04/19 08:17:48;;;;;;;4.13;3.53;;;;;;;;;;5051326;28;20205;-78
2022/04/19 08:20:15;;;;;;;4.30;3.90;;;;;;;;;;5050929;28;20595;-79
2022/04/19 08:22:44;;;;;;;5.03;4.20;;;;;;;;;;5052027;28;20209;-78
2022/04/19 08:25:11;;;;;;;4.60;3.70;;;;;;;;;;5051515;28;20237;-79
2022/04/19 08:27:40;;;;;;;4.57;3.70;;;;;;;;;;5051672;28;20243;-80
2022/04/19 08:30:09;;;;;;;4.43;3.77;;;;;;;;;;5051226;28;20261;-78
2022/04/19 08:32:36;;;;;;;4.27;3.87;;;;;;;;;;5051731;28;20234;-79
2022/04/19 08:35:03;;;;;;;4.37;3.83;;;;;;;;;;5051307;28;20252;-79
2022/04/19 08:37:31;;;;;;;3.97;3.30;;;;;;;;;;5053382;28;20237;-80
2022/04/19 08:40:00;;;;;;;3.57;3.27;;;;;;;;;;5050932;28;20267;-77
2022/04/19 08:42:29;;;;;;;5.53;3.63;;;;;;;;;;5051855;28;20228;-79
2022/04/19 08:44:56;;;;;;;6.03;3.87;;;;;;;;;;5031547;28;20234;-78
2022/04/19 08:47:24;;;;;;;4.83;4.17;;;;;;;;;;5031338;28;20211;-78
2022/04/19 08:49:54;;;;;;;6.25;4.07;;;;;;;;;;5030318;28;20253;-78
2022/04/19 08:52:21;;;;;;;7.45;4.32;;;;;;;;;;5031582;28;20206;-77
2022/04/19 08:57:35;;;;;;;4.40;3.65;;;;;;;;;;5032414;28;20578;-79
2022/04/19 09:00:03;;;;;;;4.63;4.05;;;;;;;;;;5035786;28;20233;-78
2022/04/19 09:02:31;;;;;;;4.75;4.25;;;;;;;;;;5052003;28;20194;-79
2022/04/19 09:05:12;;;;;;;5.38;4.00;;;;;;;;;;5051123;28;20693;-79
2022/04/19 09:07:40;;;;;;;4.22;3.78;;;;;;;;;;5057228;28;20225;-80
2022/04/19 09:10:11;;;;;;;6.00;4.10;;;;;;;;;;5054050;28;20241;-79
2022/04/19 09:12:39;;;;;;;4.60;4.00;;;;;;;;;;5052090;28;20206;-79
2022/04/19 09:15:08;;;;;;;5.93;3.78;;;;;;;;;;5056209;28;20241;-80
2022/04/19 09:17:36;;;;;;;5.22;4.20;;;;;;;;;;5053978;28;20206;-79
2022/04/19 09:20:10;;;;;;;5.28;4.28;;;;;;;;;;5048108;28;20592;-79
2022/04/19 09:22:37;;;;;;;4.78;4.25;;;;;;;;;;5041506;28;20263;-79
2022/04/19 09:25:17;;;;;;;4.50;3.90;;;;;;;;;;5058801;28;20234;-81
2022/04/19 09:27:46;;;;;;;4.50;4.03;;;;;;;;;;5060220;28;20210;-80
2022/04/19 09:30:20;;;;;;;4.40;4.00;;;;;;;;;;5062212;28;20254;-80
2022/04/19 09:33:03;;;;;;;5.00;4.13;;;;;;;;;;5061728;28;20206;-80
2022/04/19 09:35:30;;;;;;;5.97;4.20;;;;;;;;;;5061649;28;20237;-81
2022/04/19 09:37:57;;;;;;;4.90;4.20;;;;;;;;;;5060857;28;20206;-80
2022/04/19 09:40:32;;;;;;;4.55;4.00;;;;;;;;;;5063141;28;20295;-82
2022/04/19 09:43:10;;;;;;;4.97;4.35;;;;;;;;;;5067244;28;20213;-81
2022/04/19 09:45:46;;;;;;;4.40;4.00;;;;;;;;;;5066875;28;20673;-83
2022/04/19 09:48:16;;;;;;;4.75;4.05;;;;;;;;;;5066364;28;20212;-81
2022/04/19 09:50:49;;;;;;;5.07;4.15;;;;;;;;;;5065270;28;20242;-81
2022/04/19 09:53:18;;;;;;;4.45;4.05;;;;;;;;;;5067322;28;20201;-81
2022/04/19 09:55:47;;;;;;;4.93;4.00;;;;;;;;;;5067255;28;20256;-83
2022/04/19 09:58:16;;;;;;;4.72;3.95;;;;;;;;;;5066430;28;20782;-81
2022/04/19 10:00:44;;;;;;;4.97;4.13;;;;;;;;;;5065551;28;20348;-80
2022/04/19 10:08:54;;;;;;;4.60;4.20;;;;;;;;;;5066603;28;20205;-81
2022/04/19 10:11:21;;;;;;;5.57;4.05;;;;;;;;;;5067056;28;20238;-81
2022/04/19 10:13:50;;;;;;;5.10;3.83;;;;;;;;;;5063834;28;20218;-81
2022/04/19 10:16:18;;;;;;;5.18;4.68;;;;;;;;;;5064664;28;20592;-82
2022/04/19 10:18:46;;;;;;;4.85;4.05;;;;;;;;;;5064535;28;20206;-80
2022/04/19 10:21:16;;;;;;;6.03;4.40;;;;;;;;;;5067110;28;20713;-81
2022/04/19 10:23:44;;;;;;;5.90;4.68;;;;;;;;;;5061944;28;20206;-81
2022/04/19 10:26:16;;;;;;;4.93;4.43;;;;;;;;;;5059101;28;20234;-81
2022/04/19 10:28:43;;;;;;;4.57;3.58;;;;;;;;;;5059072;28;20217;-81
2022/04/19 10:31:13;;;;;;;4.57;4.13;;;;;;;;;;5059002;28;20226;-83
2022/04/19 10:33:51;;;;;;;4.28;3.88;;;;;;;;;;5059581;28;20197;-82
2022/04/19 10:36:20;;;;;;;5.30;3.95;;;;;;;;;;5057103;28;20237;-80
2022/04/19 10:38:48;;;;;;;4.72;4.10;;;;;;;;;;5057591;28;20259;-81
2022/04/19 10:41:47;;;;;;;5.97;4.07;;;;;;;;;;5057045;28;20237;-81
2022/04/19 10:44:28;;;;;;;5.50;4.97;;;;;;;;;;5057100;28;20229;-80
2022/04/19 10:47:08;;;;;;;5.43;4.22;;;;;;;;;;5057522;28;20277;-80
2022/04/19 10:49:48;;;;;;;5.85;4.40;;;;;;;;;;5055999;28;20594;-80
2022/04/19 10:52:33;;;;;;;7.50;4.82;;;;;;;;;;5057770;28;20194;-80
2022/04/19 10:55:06;;;;;;;5.05;4.55;;;;;;;;;;5057856;28;20234;-81
2022/04/19 11:00:27;;;;;;;5.15;4.38;;;;;;;;;;5056468;28;20383;-81
2022/04/19 11:02:59;;;;;;;6.35;5.00;;;;;;;;;;5058848;28;20214;-81
2022/04/19 11:05:36;;;;;;;4.75;4.25;;;;;;;;;;5057488;28;20233;-81
2022/04/19 11:08:18;;;;;;;4.40;3.90;;;;;;;;;;5057896;28;20209;-81
2022/04/19 11:10:45;;;;;;;4.60;4.00;;;;;;;;;;5056803;28;20701;-81
2022/04/19 11:13:12;;;;;;;4.72;4.22;;;;;;;;;;5056625;28;20210;-81
2022/04/19 11:15:41;;;;;;;6.03;4.10;;;;;;;;;;5055788;28;20242;-81
2022/04/19 11:18:24;;;;;;;4.88;3.92;;;;;;;;;;5055542;28;20634;-80
2022/04/19 11:20:51;;;;;;;7.57;4.25;;;;;;;;;;5055772;28;20238;-80
2022/04/19 11:23:19;;;;;;;8.57;4.25;;;;;;;;;;5056128;28;20217;-80
2022/04/19 11:25:47;;;;;;;4.70;4.15;;;;;;;;;;5057067;28;20234;-80
2022/04/19 11:28:21;;;;;;;4.90;4.40;;;;;;;;;;5057316;28;20277;-81
2022/04/19 11:31:08;;;;;;;4.75;4.25;;;;;;;;;;5039727;28;20240;-81
2022/04/19 11:33:36;;;;;;;4.85;4.30;;;;;;;;;;5063645;28;20206;-82
2022/04/19 11:36:05;;;;;;;4.20;3.80;;;;;;;;;;5064605;28;20246;-82
2022/04/19 11:38:32;;;;;;;4.30;3.90;;;;;;;;;;5065743;28;20209;-81
2022/04/19 11:46:46;;;;;;;4.75;4.20;;;;;;;;;;5057037;28;20302;-81
2022/04/19 11:49:31;;;;;;;4.78;3.55;;;;;;;;;;5055711;28;20325;-81
2022/04/19 11:51:58;;;;;;;3.80;3.40;;;;;;;;;;5057527;28;20190;-80
2022/04/19 11:54:26;;;;;;;4.47;4.07;;;;;;;;;;5056661;28;20209;-81
2022/04/19 11:56:54;;;;;;;4.10;3.70;;;;;;;;;;5057316;28;20230;-81
2022/04/19 11:59:26;;;;;;;3.85;3.45;;;;;;;;;;5056321;28;20234;-80
2022/04/19 12:01:53;;;;;;;4.18;3.78;;;;;;;;;;5057848;28;20279;-83
2022/04/19 12:04:21;;;;;;;3.85;3.30;;;;;;;;;;5056223;28;20209;-83
2022/04/19 12:06:50;;;;;;;4.45;3.15;;;;;;;;;;5057238;28;20198;-81
2022/04/19 12:09:18;;;;;;;4.15;3.70;;;;;;;;;;5057877;28;20763;-81
2022/04/19 12:11:46;;;;;;;3.53;3.17;;;;;;;;;;5059548;28;20542;-82
2022/04/19 12:14:24;;;;;;;5.45;3.35;;;;;;;;;;5057524;28;20216;-83
2022/04/19 12:16:55;;;;;;;2.70;2.50;;;;;;;;;;5058515;28;20222;-82
2022/04/19 12:19:32;;;;;;;3.85;2.53;;;;;;;;;;5060542;28;20222;-80
2022/04/19 12:22:00;;;;;;;2.78;2.58;;;;;;;;;;5060729;28;20394;-81
2022/04/19 12:24:29;;;;;;;2.58;2.33;;;;;;;;;;5061579;28;20202;-82
2022/04/19 12:27:05;;;;;;;2.65;2.30;;;;;;;;;;5061965;28;20221;-81
2022/04/19 12:29:32;;;;;;;2.63;2.42;;;;;;;;;;5063098;28;20241;-82
2022/04/19 12:32:00;;;;;;;2.60;2.40;;;;;;;;;;5062679;28;20269;-81
2022/04/19 12:34:32;;;;;;;2.60;2.40;;;;;;;;;;5061665;28;20212;-81
2022/04/19 12:37:06;;;;;;;2.60;2.40;;;;;;;;;;5059821;28;20728;-82
2022/04/19 12:39:33;;;;;;;2.40;2.20;;;;;;;;;;5058708;28;20238;-82
2022/04/19 12:42:07;;;;;;;2.15;2.00;;;;;;;;;;5058444;28;20213;-83
2022/04/19 12:44:35;;;;;;;2.20;1.90;;;;;;;;;;5058380;28;20225;-81
2022/04/19 12:47:04;;;;;;;1.75;1.65;;;;;;;;;;5060561;28;20547;-81
2022/04/19 12:49:32;;;;;;;1.85;1.70;;;;;;;;;;5061103;28;20229;-81
2022/04/19 12:52:05;;;;;;;1.95;1.85;;;;;;;;;;5058870;28;20229;-81
2022/04/19 12:54:33;;;;;;;1.95;1.85;;;;;;;;;;5060484;28;20234;-82
2022/04/19 12:57:01;;;;;;;4.32;1.75;;;;;;;;;;5065067;28;20214;-81
2022/04/19 12:59:29;;;;;;;1.90;1.80;;;;;;;;;;5064355;28;20356;-83
2022/04/19 13:01:56;;;;;;;2.15;1.73;;;;;;;;;;5063030;28;20218;-81
2022/04/19 13:04:23;;;;;;;1.85;1.63;;;;;;;;;;5067226;28;20202;-81
2022/04/19 13:12:22;;;;;;;1.75;1.65;;;;;;;;;;5060182;28;20201;-81
2022/04/19 13:14:50;;;;;;;1.90;1.80;;;;;;;;;;5060335;28;20237;-81
2022/04/19 13:17:17;;;;;;;2.38;2.00;;;;;;;;;;5059018;28;20217;-80
2022/04/19 13:19:45;;;;;;;2.00;1.90;;;;;;;;;;5058872;28;20242;-81
2022/04/19 13:22:12;;;;;;;4.38;2.10;;;;;;;;;;5060079;28;20214;-81
2022/04/19 13:24:42;;;;;;;2.25;1.90;;;;;;;;;;5058102;28;20253;-81
2022/04/19 13:27:10;;;;;;;3.63;1.85;;;;;;;;;;5059759;28;20191;-83
2022/04/19 13:29:37;;;;;;;2.72;1.83;;;;;;;;;;5057540;28;20249;-82
2022/04/19 13:32:05;;;;;;;2.25;1.35;;;;;;;;;;5058717;28;20403;-82
2022/04/19 13:34:32;;;;;;;1.67;1.58;;;;;;;;;;5060530;28;20245;-83
2022/04/19 13:37:00;;;;;;;1.80;1.70;;;;;;;;;;5070399;28;20224;-84
2022/04/19 13:39:27;;;;;;;1.52;1.42;;;;;;;;;;5060550;28;20226;-81
2022/04/19 13:41:55;;;;;;;1.70;1.50;;;;;;;;;;5060494;28;20212;-81
2022/04/19 13:44:22;;;;;;;1.65;1.55;;;;;;;;;;5074687;28;20284;-83
2022/04/19 13:46:52;;;;;;;1.40;1.30;;;;;;;;;;5078591;28;20208;-81
2022/04/19 13:49:19;;;;;;;1.05;1.05;;;;;;;;;;5074285;28;20781;-79
2022/04/19 13:51:46;;;;;;;1.20;1.20;;;;;;;;;;5082709;28;20220;-81
2022/04/19 13:54:14;;;;;;;1.00;1.00;;;;;;;;;;5078521;28;20201;-80
2022/04/19 13:56:41;;;;;;;1.13;0.90;;;;;;;;;;5075451;28;20261;-77
2022/04/19 13:59:11;;;;;;;1.20;1.10;;;;;;;;;;5073733;28;20229;-79
2022/04/19 14:01:39;;;;;;;0.88;0.88;;;;;;;;;;5073380;28;20229;-78
2022/04/19 14:04:06;;;;;;;2.42;1.20;;;;;;;;;;5072757;28;20209;-78
2022/04/19 14:06:35;;;;;;;1.00;1.00;;;;;;;;;;5072138;28;20236;-79
2022/04/19 14:09:03;;;;;;;0.93;0.93;;;;;;;;;;5057844;28;20226;-76
2022/04/19 14:11:30;;;;;;;1.00;1.00;;;;;;;;;;5052519;28;20252;-78
2022/04/19 14:13:57;;;;;;;1.05;1.00;;;;;;;;;;5052445;28;20206;-77
2022/04/19 14:16:26;;;;;;;0.60;0.55;;;;;;;;;;5051703;28;20234;-78
2022/04/19 14:18:53;;;;;;;1.10;0.77;;;;;;;;;;5052216;28;20584;-77
2022/04/19 14:21:20;;;;;;;0.60;0.60;;;;;;;;;;5052505;28;20237;-78
2022/04/19 14:23:48;;;;;;;1.10;0.90;;;;;;;;;;5052587;28;20213;-79
2022/04/19 14:26:15;;;;;;;1.42;1.20;;;;;;;;;;5051940;28;20234;-79
2022/04/19 14:34:13;;;;;;;0.70;0.70;;;;;;;;;;5051919;28;20212;-77
2022/04/19 14:36:41;;;;;;;0.75;0.75;;;;;;;;;;5051619;28;20260;-78
2022/04/19 14:39:08;;;;;;;1.85;0.80;;;;;;;;;;5051934;28;20225;-79
2022/04/19 14:41:35;;;;;;;0.80;0.80;;;;;;;;;;5051994;28;20234;-78
2022/04/19 14:44:02;;;;;;;0.63;0.63;;;;;;;;;;5065278;28;20209;-78
2022/04/19 14:46:31;;;;;;;1.23;1.00;;;;;;;;;;5071488;28;20237;-78
2022/04/19 14:48:58;;;;;;;0.70;0.70;;;;;;;;;;5071331;28;20260;-77
2022/04/19 14:54:09;;;;;;;0.93;0.90;;;;;;;;;;5072011;28;20308;-78
2022/04/19 14:56:36;;;;;;;1.08;0.98;;;;;;;;;;5070988;28;20240;-78
2022/04/19 14:59:03;;;;;;;0.80;0.80;;;;;;;;;;5071545;28;20229;-77
2022/04/19 15:01:32;;;;;;;1.13;1.10;;;;;;;;;;5071398;28;20744;-78
2022/04/19 15:03:59;;;;;;;0.80;0.80;;;;;;;;;;5071330;28;20213;-77
2022/04/19 15:06:26;;;;;;;1.77;0.70;;;;;;;;;;5070962;28;20240;-78
2022/04/19 15:08:53;;;;;;;0.70;0.70;;;;;;;;;;5071527;28;20213;-84
2022/04/19 15:11:20;;;;;;;0.60;0.60;;;;;;;;;;5051698;28;20612;-84
2022/04/19 15:13:47;;;;;;;1.02;0.95;;;;;;;;;;5037880;28;20666;-84
2022/04/19 15:16:14;;;;;;;1.13;0.60;;;;;;;;;;5032158;28;20245;-83
2022/04/19 15:18:42;;;;;;;1.13;0.90;;;;;;;;;;5032100;28;20229;-83
2022/04/19 15:21:10;;;;;;;1.02;1.00;;;;;;;;;;5031869;28;20231;-82
2022/04/19 15:23:37;;;;;;;2.53;0.82;;;;;;;;;;5032681;28;20237;-83
2022/04/19 15:26:04;;;;;;;0.70;0.70;;;;;;;;;;5032069;28;20241;-84
2022/04/19 15:28:31;;;;;;;0.68;0.55;;;;;;;;;;5032563;28;20210;-84
2022/04/19 15:30:59;;;;;;;3.65;0.70;;;;;;;;;;5032227;28;20238;-84
2022/04/19 15:33:26;;;;;;;0.70;0.52;;;;;;;;;;5032031;28;20284;-82
2022/04/19 15:35:54;;;;;;;0.98;0.90;;;;;;;;;;5032116;28;20241;-83
2022/04/19 15:38:21;;;;;;;2.42;1.10;;;;;;;;;;5032619;28;20222;-82
2022/04/19 15:40:49;;;;;;;1.05;0.70;;;;;;;;;;5032252;28;20242;-83
2022/04/19 15:43:17;;;;;;;0.80;0.80;;;;;;;;;;5032730;28;20194;-84
2022/04/19 15:45:46;;;;;;;0.70;0.70;;;;;;;;;;5032949;28;20231;-83